Time;durP1;ratioP1;P1;durP2;ratioP2;P2;SDS_P1;SDS_P2;PMS_P1;PMS_P2;Temp;Humidity;BMP_temperature;BMP_pressure;BME280_temperature;BME280_humidity;BME280_pressure;Samples;Min_cycle;Max_cycle;Signal;HPM_P1;HPM_P2
2021/07/11 00:00:24;;;;;;;10.70;2.70;;;;;;;25.97;53.39;100382.91;5031012;28;20045;-69
2021/07/11 00:02:52;;;;;;;9.52;3.38;;;;;;;25.94;53.40;100373.13;5012873;28;20567;-69
2021/07/11 00:05:22;;;;;;;12.88;3.00;;;;;;;25.96;53.36;100371.22;5014223;28;20116;-68
2021/07/11 00:07:49;;;;;;;16.38;3.30;;;;;;;25.95;53.54;100374.00;5011158;28;20058;-69
2021/07/11 00:10:18;;;;;;;12.73;2.58;;;;;;;25.94;53.42;100362.31;5028768;28;20475;-69
2021/07/11 00:12:46;;;;;;;8.52;3.22;;;;;;;25.91;53.78;100372.44;5029342;28;20049;-68
2021/07/11 00:15:18;;;;;;;9.40;2.85;;;;;;;25.93;53.40;100368.66;5028538;28;20030;-69
2021/07/11 00:17:48;;;;;;;12.45;2.80;;;;;;;25.92;53.35;100366.94;5026914;28;20052;-69
2021/07/11 00:20:16;;;;;;;9.70;3.05;;;;;;;25.90;53.79;100366.16;5025432;28;20117;-69
2021/07/11 00:22:44;;;;;;;8.02;2.67;;;;;;;25.85;53.74;100365.53;5020083;28;20076;-69
2021/07/11 00:25:13;;;;;;;9.75;2.85;;;;;;;25.88;53.70;100357.22;5008859;28;20041;-68
2021/07/11 00:27:41;;;;;;;9.50;3.00;;;;;;;25.86;53.84;100353.75;5010946;28;20041;-68
2021/07/11 00:30:10;;;;;;;13.00;3.13;;;;;;;25.89;53.63;100361.69;5028495;28;20057;-67
2021/07/11 00:32:38;;;;;;;13.82;3.45;;;;;;;25.91;53.81;100361.63;5015784;28;20089;-67
2021/07/11 00:35:10;;;;;;;8.73;2.95;;;;;;;25.89;53.87;100358.09;4991765;28;20042;-69
2021/07/11 00:37:37;;;;;;;10.25;3.67;;;;;;;25.85;53.68;100356.53;4995799;28;20069;-69
2021/07/11 00:40:07;;;;;;;11.60;4.03;;;;;;;25.85;54.10;100356.53;5028717;28;20120;-69
2021/07/11 00:42:35;;;;;;;10.75;3.20;;;;;;;25.87;53.90;100349.19;5020947;28;20470;-69
2021/07/11 00:45:04;;;;;;;8.88;2.80;;;;;;;25.86;53.95;100353.75;5025301;28;20083;-69
2021/07/11 00:47:31;;;;;;;7.53;3.08;;;;;;;25.84;54.61;100349.38;5029248;28;20042;-69
2021/07/11 00:49:59;;;;;;;14.15;3.38;;;;;;;25.80;54.64;100346.81;5027610;28;20069;-68
2021/07/11 00:52:28;;;;;;;13.38;3.00;;;;;;;25.75;54.69;100339.91;5028480;28;20081;-69
2021/07/11 00:54:55;;;;;;;7.88;2.85;;;;;;;25.74;54.55;100332.75;5027158;28;20526;-69
2021/07/11 00:57:23;;;;;;;9.73;2.75;;;;;;;25.76;54.51;100334.44;5020077;28;20045;-68
2021/07/11 00:59:52;;;;;;;7.40;3.13;;;;;;;25.75;54.13;100338.09;5024037;28;20041;-68
2021/07/11 01:02:27;;;;;;;9.52;2.67;;;;;;;25.77;54.69;100343.41;5007257;28;20030;-69
2021/07/11 01:04:55;;;;;;;;;;;;;;;25.79;54.41;100341.53;5020480;28;20045;-68
2021/07/11 01:07:31;;;;;;;9.07;3.28;;;;;;;25.74;54.46;100338.16;5003773;28;19925;-68
2021/07/11 01:10:05;;;;;;;10.00;3.00;;;;;;;25.74;54.63;100338.16;5001651;28;20066;-68
2021/07/11 01:12:33;;;;;;;;;;;;;;;25.75;54.66;100331.78;4991048;28;20038;-69
2021/07/11 01:15:02;;;;;;;7.55;3.25;;;;;;;25.72;54.61;100330.16;4980148;28;19956;-68
2021/07/11 01:17:31;;;;;;;7.70;3.10;;;;;;;25.69;55.10;100333.00;4991087;28;20058;-69
2021/07/11 01:20:10;;;;;;;12.05;3.22;;;;;;;25.70;55.00;100342.00;5013359;28;20054;-69
2021/07/11 01:22:44;;;;;;;12.90;3.80;;;;;;;25.70;54.96;100333.88;5012806;28;20049;-69
2021/07/11 01:25:13;;;;;;;;;;;;;;;25.65;55.50;100333.25;4995941;28;20049;-68
2021/07/11 01:27:43;;;;;;;7.05;2.70;;;;;;;25.66;55.42;100333.19;5017502;28;19975;-68
2021/07/11 01:30:13;;;;;;;12.45;3.95;;;;;;;25.67;55.55;100325.91;5035151;28;20091;-67
2021/07/11 01:32:41;;;;;;;9.35;2.92;;;;;;;25.69;55.42;100318.59;5040114;28;20129;-69
2021/07/11 01:35:10;;;;;;;9.70;3.13;;;;;;;25.66;55.49;100324.19;5034517;28;20508;-68
2021/07/11 01:37:39;;;;;;;9.20;3.28;;;;;;;25.66;55.60;100327.78;5043235;28;20042;-66
2021/07/11 01:40:08;;;;;;;10.43;3.25;;;;;;;25.64;55.50;100313.47;5033458;28;20400;-69
2021/07/11 01:42:37;;;;;;;9.05;3.30;;;;;;;25.63;55.50;100317.13;5032869;28;20053;-69
2021/07/11 01:45:07;;;;;;;11.75;3.20;;;;;;;25.64;55.29;100316.16;5033469;28;20041;-69
2021/07/11 01:47:36;;;;;;;9.45;3.20;;;;;;;25.63;55.67;100311.72;5041015;28;20041;-69
2021/07/11 01:50:06;;;;;;;6.93;3.05;;;;;;;25.62;55.46;100311.78;5033241;28;20072;-70
2021/07/11 01:52:35;;;;;;;9.80;3.08;;;;;;;25.59;55.94;100306.56;5040237;28;20049;-69
2021/07/11 01:55:05;;;;;;;11.13;3.03;;;;;;;25.59;55.66;100298.44;5037366;28;20060;-69
2021/07/11 01:57:32;;;;;;;8.48;2.92;;;;;;;25.54;55.77;100306.75;5043449;28;20397;-68
2021/07/11 02:00:00;;;;;;;7.70;2.58;;;;;;;25.53;55.93;100298.75;5044954;28;20048;-69
2021/07/11 02:02:30;;;;;;;14.10;3.72;;;;;;;25.54;55.95;100287.81;5043975;28;20087;-68
2021/07/11 02:04:57;;;;;;;10.38;3.30;;;;;;;25.54;55.54;100298.63;5042702;28;20084;-69
2021/07/11 02:07:25;;;;;;;6.28;2.67;;;;;;;25.54;55.63;100305.88;5047076;28;20052;-68
2021/07/11 02:09:53;;;;;;;8.02;2.97;;;;;;;25.55;55.66;100294.97;5038531;28;20420;-69
2021/07/11 02:12:24;;;;;;;5.57;2.50;;;;;;;25.55;55.66;100296.81;5036130;28;20041;-70
2021/07/11 02:14:55;;;;;;;11.05;3.35;;;;;;;25.52;55.69;100308.69;5033342;28;20038;-68
2021/07/11 02:17:26;;;;;;;10.35;3.63;;;;;;;25.49;55.97;100305.25;5044674;28;20419;-69
2021/07/11 02:20:00;;;;;;;10.27;3.05;;;;;;;25.48;56.19;100301.66;5031347;28;20052;-68
2021/07/11 02:22:29;;;;;;;10.02;3.03;;;;;;;25.43;56.21;100292.94;5043310;28;20041;-69
2021/07/11 02:24:58;;;;;;;8.00;3.00;;;;;;;25.42;56.20;100294.75;5019594;28;20124;-68
2021/07/11 02:27:26;;;;;;;8.68;3.30;;;;;;;25.39;56.19;100300.34;5048669;28;20653;-69
2021/07/11 02:29:56;;;;;;;6.38;2.65;;;;;;;25.37;56.46;100307.66;5050658;28;20133;-69
2021/07/11 02:32:26;;;;;;;10.27;2.90;;;;;;;25.34;56.55;100302.41;5049660;28;20037;-68
2021/07/11 02:34:55;;;;;;;7.97;2.95;;;;;;;25.37;56.51;100293.25;5038672;28;20037;-68
2021/07/11 02:37:24;;;;;;;8.82;3.00;;;;;;;25.37;56.73;100291.44;5033260;28;20069;-69
2021/07/11 02:39:55;;;;;;;5.88;2.50;;;;;;;25.37;56.86;100291.44;5032986;28;20049;-69
2021/07/11 02:42:24;;;;;;;8.43;3.00;;;;;;;25.37;56.94;100301.38;5038840;28;20102;-68
2021/07/11 02:44:56;;;;;;;10.35;2.88;;;;;;;25.39;56.98;100289.53;5050532;28;20045;-68
2021/07/11 02:47:26;;;;;;;13.90;2.65;;;;;;;25.40;57.46;100293.97;5037345;28;20069;-69
2021/07/11 02:50:00;;;;;;;11.48;3.30;;;;;;;25.39;57.44;100305.75;5042022;28;20112;-69
2021/07/11 02:52:29;;;;;;;8.23;3.20;;;;;;;25.39;57.42;100294.94;5040134;28;20111;-69
2021/07/11 02:55:00;;;;;;;7.22;2.47;;;;;;;25.41;57.27;100298.41;5030720;28;20322;-69
2021/07/11 02:57:30;;;;;;;5.25;2.60;;;;;;;25.39;57.30;100308.47;5034253;28;20160;-69
2021/07/11 02:59:58;;;;;;;8.48;3.05;;;;;;;25.33;57.46;100302.50;5042534;28;20037;-69
2021/07/11 03:02:28;;;;;;;10.95;3.15;;;;;;;25.33;57.59;100300.69;5029197;28;20057;-69
2021/07/11 03:05:00;;;;;;;10.98;3.63;;;;;;;25.34;57.74;100301.53;5041185;28;20636;-69
2021/07/11 03:07:27;;;;;;;8.88;2.90;;;;;;;25.32;58.12;100301.63;5048648;28;20505;-70
2021/07/11 03:09:55;;;;;;;13.00;3.17;;;;;;;25.29;57.94;100299.06;5040798;28;20060;-70
2021/07/11 03:12:23;;;;;;;10.88;3.47;;;;;;;25.33;58.10;100300.69;5052422;28;20057;-69
2021/07/11 03:14:55;;;;;;;9.52;2.95;;;;;;;25.34;58.51;100301.53;5042289;28;20049;-69
2021/07/11 03:17:26;;;;;;;10.20;3.60;;;;;;;25.34;58.66;100302.41;5049273;28;20060;-69
2021/07/11 03:19:57;;;;;;;9.00;3.40;;;;;;;25.37;58.66;100304.94;5020514;28;20049;-69
2021/07/11 03:22:30;;;;;;;16.88;4.25;;;;;;;25.41;58.51;100311.94;5051106;28;20127;-69
2021/07/11 03:25:03;;;;;;;8.95;3.10;;;;;;;25.43;58.70;100290.22;5036571;28;20098;-69
2021/07/11 03:27:32;;;;;;;9.88;3.53;;;;;;;25.49;58.41;100305.25;5043236;28;20057;-69
2021/07/11 03:30:07;;;;;;;12.88;3.03;;;;;;;25.56;58.53;100312.06;5030457;28;20121;-69
2021/07/11 03:32:36;;;;;;;10.82;3.38;;;;;;;25.64;58.30;100315.28;5031540;28;20397;-69
2021/07/11 03:35:08;;;;;;;9.05;2.63;;;;;;;25.73;58.29;100310.25;5041112;28;20037;-69
2021/07/11 03:37:45;;;;;;;12.02;3.80;;;;;;;25.80;57.88;100322.47;5033172;28;20057;-69
2021/07/11 03:40:18;;;;;;;10.50;3.95;;;;;;;25.91;57.43;100319.22;5037918;28;20037;-68
2021/07/11 03:42:47;;;;;;;11.05;3.20;;;;;;;26.01;56.44;100327.66;5040147;28;20041;-68
2021/07/11 03:45:16;;;;;;;8.38;2.75;;;;;;;26.11;56.09;100329.81;5036376;28;20064;-69
2021/07/11 03:47:47;;;;;;;9.73;3.00;;;;;;;26.23;55.52;100330.06;5050657;28;20037;-70
2021/07/11 03:50:18;;;;;;;10.90;2.92;;;;;;;26.32;55.16;100327.75;5038879;28;20061;-68
2021/07/11 03:52:50;;;;;;;11.65;3.13;;;;;;;26.41;54.60;100329.06;5037229;28;20102;-69
2021/07/11 03:55:20;;;;;;;12.77;2.90;;;;;;;26.53;53.88;100329.22;5046910;28;20037;-68
2021/07/11 03:57:49;;;;;;;9.15;3.22;;;;;;;26.64;53.54;100331.34;5041408;28;20074;-69
2021/07/11 04:00:18;;;;;;;14.43;3.05;;;;;;;26.75;53.15;100333.41;5039206;28;20121;-70
2021/07/11 04:02:48;;;;;;;8.73;3.08;;;;;;;26.85;52.19;100338.19;5044674;28;20049;-70
2021/07/11 04:05:21;;;;;;;13.95;3.05;;;;;;;26.95;51.43;100327.75;5050821;28;20407;-69
2021/07/11 04:07:51;;;;;;;5.32;2.30;;;;;;;27.05;51.16;100331.66;5042713;28;20033;-69
2021/07/11 04:10:24;;;;;;;8.30;2.33;;;;;;;27.20;51.05;100333.44;5041843;28;20110;-69
2021/07/11 04:12:51;;;;;;;11.18;2.97;;;;;;;27.33;50.88;100344.44;5048568;28;20135;-69
2021/07/11 04:15:19;;;;;;;10.35;2.50;;;;;;;27.47;50.56;100333.63;5032573;28;20960;-69
2021/07/11 04:17:50;;;;;;;9.10;2.60;;;;;;;27.60;50.12;100331.94;5048505;28;20061;-69
2021/07/11 04:20:23;;;;;;;9.55;3.00;;;;;;;27.74;49.92;100345.53;5042741;28;20438;-69
2021/07/11 04:22:55;;;;;;;9.75;2.80;;;;;;;27.89;50.37;100340.97;5042987;28;20045;-69
2021/07/11 04:25:27;;;;;;;5.93;2.60;;;;;;;27.98;49.46;100334.09;5049669;28;20045;-71
2021/07/11 04:27:56;;;;;;;8.90;2.92;;;;;;;28.09;49.32;100335.13;5043487;28;20042;-70
2021/07/11 04:30:27;;;;;;;14.20;2.70;;;;;;;28.24;49.04;100344.19;5034785;28;20038;-70
2021/07/11 04:32:54;;;;;;;11.35;2.60;;;;;;;28.39;48.40;100345.94;5040389;28;20045;-70
2021/07/11 04:35:23;;;;;;;11.15;2.88;;;;;;;28.49;47.73;100344.34;5035963;28;20033;-69
2021/07/11 04:37:51;;;;;;;11.57;2.83;;;;;;;28.60;46.93;100340.06;5041499;28;20076;-69
2021/07/11 04:40:18;;;;;;;7.72;2.45;;;;;;;28.77;47.04;100338.00;5035016;28;20096;-69
2021/07/11 04:42:46;;;;;;;8.25;2.95;;;;;;;28.92;46.33;100349.69;5029558;28;20107;-70
2021/07/11 04:45:16;;;;;;;5.53;2.42;;;;;;;29.17;46.24;100341.63;5030284;28;20045;-70
2021/07/11 04:47:54;;;;;;;7.93;2.40;;;;;;;29.31;45.38;100349.72;5043709;28;20044;-70
2021/07/11 04:50:23;;;;;;;12.52;3.88;;;;;;;29.40;44.82;100345.53;5045492;28;20049;-70
2021/07/11 04:52:50;;;;;;;9.32;2.60;;;;;;;29.56;44.98;100350.75;5039489;28;20107;-70
2021/07/11 04:55:18;;;;;;;9.25;2.95;;;;;;;29.81;44.55;100358.94;5040617;28;20069;-69
2021/07/11 04:57:45;;;;;;;7.40;2.28;;;;;;;29.88;43.89;100352.09;5039226;28;20579;-70
2021/07/11 05:00:15;;;;;;;8.85;2.42;;;;;;;29.93;43.92;100349.94;5045847;28;20037;-69
2021/07/11 05:02:45;;;;;;;8.80;2.72;;;;;;;30.08;43.68;100347.97;5048498;28;20065;-69
2021/07/11 05:05:12;;;;;;;10.38;3.25;;;;;;;30.37;43.11;100356.78;5032397;28;20046;-68
2021/07/11 05:07:42;;;;;;;10.85;2.30;;;;;;;30.63;42.19;100357.59;5032168;28;20041;-70
2021/07/11 05:10:11;;;;;;;9.18;2.45;;;;;;;30.82;41.61;100361.56;5030547;28;20444;-70
2021/07/11 05:12:39;;;;;;;8.30;2.40;;;;;;;31.02;40.82;100364.66;5030805;28;20049;-70
2021/07/11 05:15:15;;;;;;;7.55;2.40;;;;;;;31.25;40.34;100363.78;5040547;28;20045;-70
2021/07/11 05:17:45;;;;;;;14.07;3.08;;;;;;;31.52;39.76;100367.13;5054077;28;20040;-70
2021/07/11 05:20:14;;;;;;;8.02;2.15;;;;;;;31.83;39.14;100379.28;5034706;28;20079;-70
2021/07/11 05:22:43;;;;;;;10.88;2.47;;;;;;;32.04;38.96;100376.69;5050143;28;20069;-69
2021/07/11 05:25:14;;;;;;;8.18;2.80;;;;;;;32.15;38.60;100382.22;5038750;28;20069;-69
2021/07/11 05:27:46;;;;;;;9.23;2.20;;;;;;;32.31;38.56;100379.97;5047738;28;20400;-69
2021/07/11 05:30:15;;;;;;;10.60;2.70;;;;;;;32.44;38.38;100383.44;5035667;28;20045;-70
2021/07/11 05:32:42;;;;;;;6.97;2.80;;;;;;;32.65;38.02;100389.03;5038321;28;20036;-70
2021/07/11 05:35:11;;;;;;;8.02;2.50;;;;;;;32.93;37.42;100397.72;5025069;28;20033;-69
2021/07/11 05:37:38;;;;;;;10.48;2.92;;;;;;;32.72;36.81;100393.03;5031128;28;20115;-71
2021/07/11 05:40:15;;;;;;;9.25;2.42;;;;;;;32.88;37.23;100398.09;5033687;28;20072;-70
2021/07/11 05:42:44;;;;;;;15.48;2.80;;;;;;;33.25;36.57;100398.66;5040718;28;20476;-69
2021/07/11 05:45:12;;;;;;;10.40;2.70;;;;;;;33.49;35.87;100399.28;5048807;28;20052;-70
2021/07/11 05:47:42;;;;;;;11.48;2.75;;;;;;;33.60;35.99;100406.59;5039928;28;20056;-71
2021/07/11 05:50:11;;;;;;;7.93;2.42;;;;;;;33.91;35.94;100416.66;5041179;28;20184;-70
2021/07/11 05:52:41;;;;;;;10.30;2.50;;;;;;;34.10;35.24;100402.19;5027035;28;20065;-71
2021/07/11 05:55:13;;;;;;;15.07;2.50;;;;;;;34.41;35.46;100411.31;5033989;28;20385;-71
2021/07/11 05:57:41;;;;;;;10.20;2.65;;;;;;;34.67;34.92;100401.63;5038875;28;20095;-71
2021/07/11 06:00:12;;;;;;;10.15;2.78;;;;;;;34.92;34.57;100410.41;5029795;28;20041;-71
2021/07/11 06:02:42;;;;;;;8.77;2.38;;;;;;;35.00;34.43;100411.41;5040328;28;20083;-71
2021/07/11 06:05:10;;;;;;;9.15;3.30;;;;;;;34.23;35.02;100391.03;5032887;28;20044;-71
2021/07/11 06:07:40;;;;;;;8.90;2.50;;;;;;;34.39;34.94;100399.66;5037741;28;20050;-71
2021/07/11 06:10:09;;;;;;;4.57;2.25;;;;;;;34.48;34.53;100409.78;5030779;28;20053;-71
2021/07/11 06:12:39;;;;;;;11.13;2.47;;;;;;;34.48;34.19;100404.28;5038388;28;20127;-71
2021/07/11 06:15:21;;;;;;;10.73;3.55;;;;;;;34.74;34.02;100405.56;5050281;28;20041;-71
2021/07/11 06:17:48;;;;;;;10.23;2.58;;;;;;;34.99;33.56;100401.44;5045907;28;20140;-72
2021/07/11 06:20:16;;;;;;;12.00;3.30;;;;;;;34.33;33.85;100391.97;5042224;28;20079;-71
2021/07/11 06:22:43;;;;;;;7.82;2.83;;;;;;;34.56;34.05;100389.88;5052839;28;20087;-72
2021/07/11 06:25:11;;;;;;;11.82;3.45;;;;;;;34.63;33.93;100407.53;5038421;28;20505;-71
2021/07/11 06:27:42;;;;;;;10.93;2.90;;;;;;;34.74;33.94;100405.56;5048581;28;20061;-71
2021/07/11 06:30:12;;;;;;;7.38;2.70;;;;;;;34.94;33.58;100411.09;5051195;28;20514;-71
2021/07/11 06:32:40;;;;;;;7.90;2.75;;;;;;;34.95;33.29;100407.38;5049009;28;20123;-71
2021/07/11 06:35:10;;;;;;;10.32;2.97;;;;;;;34.97;33.38;100405.34;5033952;28;20048;-71
2021/07/11 06:37:41;;;;;;;11.15;3.10;;;;;;;34.71;33.65;100414.09;5032148;28;20046;-71
2021/07/11 06:40:12;;;;;;;8.98;2.95;;;;;;;34.77;34.65;100412.66;5039300;28;20048;-71
2021/07/11 06:42:42;;;;;;;8.30;3.30;;;;;;;34.73;34.33;100416.69;5021675;28;20550;-71
2021/07/11 06:45:14;;;;;;;10.00;3.97;;;;;;;34.55;34.61;100410.09;5024635;28;20053;-71
2021/07/11 06:47:43;;;;;;;11.27;2.92;;;;;;;34.86;34.32;100430.16;5033217;28;20048;-71
2021/07/11 06:50:13;;;;;;;16.45;2.83;;;;;;;34.96;34.13;100433.81;5026750;28;20077;-72
2021/07/11 06:52:41;;;;;;;13.07;3.47;;;;;;;34.78;34.03;100419.91;5033485;28;20144;-71
2021/07/11 06:55:10;;;;;;;11.07;3.47;;;;;;;34.82;34.24;100421.34;5019605;28;20033;-70
2021/07/11 06:57:51;;;;;;;11.90;3.15;;;;;;;35.14;34.59;100413.75;5021637;28;20069;-71
2021/07/11 07:00:20;;;;;;;9.90;2.90;;;;;;;35.19;34.46;100410.56;5002703;28;20057;-70
2021/07/11 07:02:47;;;;;;;9.68;2.78;;;;;;;35.30;34.23;100421.47;5011844;28;20049;-71
2021/07/11 07:05:15;;;;;;;7.18;3.15;;;;;;;35.37;33.78;100428.13;5010305;28;20128;-71
2021/07/11 07:07:54;;;;;;;12.82;3.25;;;;;;;35.60;33.66;100422.34;5011421;28;20038;-70
2021/07/11 07:10:23;;;;;;;8.43;3.10;;;;;;;35.75;33.15;100421.81;5009427;28;20038;-71
2021/07/11 07:12:55;;;;;;;11.60;3.13;;;;;;;35.75;33.11;100430.03;5010738;28;20082;-71
2021/07/11 07:15:23;;;;;;;10.23;2.83;;;;;;;35.79;33.30;100430.59;5009009;28;20120;-72
2021/07/11 07:17:53;;;;;;;8.07;2.50;;;;;;;35.66;33.45;100424.50;5010057;28;20410;-72
2021/07/11 07:20:24;;;;;;;7.22;3.17;;;;;;;35.32;33.61;100429.53;5011287;28;20030;-70
2021/07/11 07:22:51;;;;;;;6.72;2.58;;;;;;;35.15;33.78;100420.13;5010867;28;20030;-72
2021/07/11 07:25:22;;;;;;;9.00;2.72;;;;;;;35.01;34.02;100424.13;5010298;28;20061;-71
2021/07/11 07:28:04;;;;;;;5.65;2.55;;;;;;;35.04;34.35;100415.63;5010710;28;20444;-72
2021/07/11 07:30:34;;;;;;;9.50;2.95;;;;;;;35.15;34.17;100420.13;5007615;28;20054;-71
2021/07/11 07:33:05;;;;;;;10.27;2.72;;;;;;;35.30;34.51;100417.88;5011677;28;20054;-73
2021/07/11 07:35:32;;;;;;;9.95;2.35;;;;;;;35.36;33.99;100418.16;5010251;28;20104;-72
2021/07/11 07:38:03;;;;;;;6.95;2.70;;;;;;;35.37;33.61;100430.00;5010219;28;20117;-71
2021/07/11 07:40:32;;;;;;;9.73;3.00;;;;;;;35.33;33.38;100429.41;5010389;28;20048;-71
2021/07/11 07:43:00;;;;;;;10.13;2.78;;;;;;;35.35;33.31;100424.66;5010294;28;20056;-72
2021/07/11 07:45:27;;;;;;;9.98;3.17;;;;;;;35.35;32.89;100434.78;5010941;28;20441;-71
2021/07/11 07:48:01;;;;;;;11.18;3.17;;;;;;;35.11;33.21;100422.28;5010369;28;20046;-71
2021/07/11 07:50:30;;;;;;;;;;;;;;;34.96;33.43;100420.09;5010967;28;20448;-71
2021/07/11 07:52:59;;;;;;;10.43;3.20;;;;;;;35.10;33.84;100423.31;5011206;28;20407;-70
2021/07/11 07:55:30;;;;;;;7.45;3.45;;;;;;;35.28;33.57;100430.84;5009999;28;20046;-70
2021/07/11 07:58:00;;;;;;;8.90;2.75;;;;;;;35.27;33.29;100426.38;5010316;28;20046;-71
2021/07/11 08:00:31;;;;;;;8.68;3.55;;;;;;;35.29;34.17;100414.25;5010523;28;20041;-69
2021/07/11 08:03:00;;;;;;;9.32;3.35;;;;;;;35.47;34.70;100422.63;5010649;28;20112;-69
2021/07/11 08:05:31;;;;;;;8.52;3.70;;;;;;;35.62;34.93;100423.06;5010037;28;20034;-70
2021/07/11 08:08:05;;;;;;;11.85;3.22;;;;;;;35.50;35.03;100427.84;5009519;28;20038;-70
2021/07/11 08:10:33;;;;;;;;;;;;;;;35.28;34.46;100417.13;4991031;28;20046;-70
2021/07/11 08:13:15;;;;;;;7.03;3.10;;;;;;;35.35;34.74;100435.66;5010945;28;19964;-69
2021/07/11 08:15:44;;;;;;;8.50;3.17;;;;;;;35.53;34.04;100435.78;5003237;28;20531;-69
2021/07/11 08:18:14;;;;;;;10.27;3.50;;;;;;;35.57;34.19;100440.00;5005348;28;20048;-70
2021/07/11 08:20:45;;;;;;;9.15;3.00;;;;;;;35.80;33.95;100432.34;5006157;28;20115;-68
2021/07/11 08:23:12;;;;;;;9.80;3.17;;;;;;;36.06;33.28;100451.84;5018933;28;20083;-69
2021/07/11 08:25:40;;;;;;;7.18;3.35;;;;;;;36.08;33.13;100444.31;5038567;28;20052;-70
2021/07/11 08:28:08;;;;;;;9.30;3.13;;;;;;;36.09;32.95;100441.44;5037183;28;20049;-70
2021/07/11 08:30:38;;;;;;;11.43;3.17;;;;;;;36.08;33.24;100436.94;5002635;28;20050;-70
2021/07/11 08:33:08;;;;;;;7.82;3.03;;;;;;;36.01;32.93;100432.19;5007453;28;20058;-70
2021/07/11 08:35:37;;;;;;;7.45;3.10;;;;;;;35.89;32.66;100431.47;5008585;28;20429;-70
2021/07/11 08:38:05;;;;;;;14.15;3.40;;;;;;;35.72;33.11;100433.06;5007328;28;20042;-70
2021/07/11 08:40:38;;;;;;;8.63;3.00;;;;;;;35.90;33.02;100439.59;5008862;28;20569;-71
2021/07/11 08:43:13;;;;;;;6.32;2.95;;;;;;;36.19;33.00;100434.03;5011352;28;20046;-70
2021/07/11 08:45:40;;;;;;;8.73;3.20;;;;;;;36.07;32.67;100440.69;5010794;28;20042;-71
2021/07/11 08:48:08;;;;;;;9.95;3.20;;;;;;;35.92;32.78;100431.16;5033533;28;20045;-71
2021/07/11 08:50:38;;;;;;;9.10;2.92;;;;;;;36.01;32.91;100434.94;5035054;28;20069;-71
2021/07/11 08:53:11;;;;;;;10.40;3.08;;;;;;;36.13;32.70;100441.97;5034522;28;20073;-71
2021/07/11 08:55:39;;;;;;;7.53;2.87;;;;;;;35.97;33.20;100441.75;5034848;28;20045;-71
2021/07/11 08:58:13;;;;;;;12.73;3.60;;;;;;;36.07;33.50;100446.19;5030381;28;20124;-70
2021/07/11 09:00:40;;;;;;;;;;;;;;;36.02;33.14;100432.03;5032487;28;20037;-71
2021/07/11 09:03:24;;;;;;;;;;;;;;;;;;;;;
2021/07/11 09:05:58;;;;;;;8.20;3.08;;;;;;;36.24;33.25;100437.22;5047463;28;20044;-71
2021/07/11 09:08:37;;;;;;;9.07;3.70;;;;;;;36.39;32.88;100439.47;5045602;28;20374;-71
2021/07/11 09:11:27;;;;;;;10.27;3.35;;;;;;;36.35;32.76;100441.69;5014601;28;20038;-70
2021/07/11 09:13:59;;;;;;;6.88;2.97;;;;;;;36.29;32.67;100443.16;5013272;28;20164;-71
2021/07/11 09:16:38;;;;;;;8.75;2.90;;;;;;;36.27;32.89;100431.41;5013964;28;20129;-70
2021/07/11 09:19:28;;;;;;;10.75;3.58;;;;;;;36.41;32.92;100430.09;5016504;28;20042;-70
2021/07/11 09:22:11;;;;;;;10.63;3.35;;;;;;;36.59;32.75;100430.16;5013893;28;20056;-71
2021/07/11 09:24:50;;;;;;;15.35;3.90;;;;;;;36.58;32.78;100436.66;5028974;28;20037;-70
2021/07/11 09:27:21;;;;;;;11.70;3.70;;;;;;;36.67;32.91;100427.53;5053692;28;20044;-71
2021/07/11 09:29:55;;;;;;;9.70;3.60;;;;;;;36.71;32.34;100429.81;5051967;28;20029;-70
2021/07/11 09:32:35;;;;;;;10.45;3.90;;;;;;;36.69;31.70;100425.50;5053827;28;20063;-71
2021/07/11 09:35:13;;;;;;;7.57;3.10;;;;;;;36.43;31.56;100428.03;5036042;28;20059;-70
2021/07/11 09:37:44;;;;;;;11.85;3.25;;;;;;;36.33;31.95;100441.81;5054030;28;20100;-70
2021/07/11 09:40:21;;;;;;;9.55;4.30;;;;;;;36.34;32.19;100443.56;5020126;28;20040;-70
2021/07/11 09:43:05;;;;;;;11.02;4.15;;;;;;;36.58;32.43;100437.53;5013720;28;20049;-70
2021/07/11 09:45:45;;;;;;;10.23;3.45;;;;;;;36.79;32.48;100433.69;5014095;28;20061;-70
2021/07/11 09:48:17;;;;;;;8.98;3.03;;;;;;;36.90;32.19;100431.59;5018885;28;20038;-68
2021/07/11 09:50:47;;;;;;;13.68;3.70;;;;;;;36.91;31.79;100432.47;5013852;28;20141;-69
2021/07/11 09:53:19;;;;;;;6.72;3.00;;;;;;;36.86;31.84;100430.19;5013975;28;20038;-70
2021/07/11 09:55:52;;;;;;;8.57;3.35;;;;;;;36.63;31.81;100426.06;5022502;28;20052;-70
2021/07/11 09:58:24;;;;;;;9.48;3.47;;;;;;;36.47;32.21;100437.72;5033045;28;20041;-71
2021/07/11 10:00:57;;;;;;;7.55;3.22;;;;;;;36.57;32.21;100429.41;5002182;28;20038;-71
2021/07/11 10:03:24;;;;;;;11.30;3.13;;;;;;;36.56;32.18;100439.56;5012968;28;20057;-70
2021/07/11 10:06:11;;;;;;;13.02;3.40;;;;;;;36.68;32.27;100445.78;5013691;28;20080;-70
2021/07/11 10:08:46;;;;;;;12.93;3.47;;;;;;;36.56;32.71;100422.22;5033879;28;20049;-71
2021/07/11 10:11:15;;;;;;;10.65;3.47;;;;;;;36.39;32.79;100439.47;5031022;28;20448;-69
2021/07/11 10:13:49;;;;;;;9.45;3.60;;;;;;;36.31;33.51;100449.34;5033100;28;20065;-70
2021/07/11 10:16:24;;;;;;;8.60;2.75;;;;;;;36.26;33.10;100450.81;5032876;28;20078;-70
2021/07/11 10:19:00;;;;;;;12.02;3.42;;;;;;;35.97;33.27;100462.69;5032387;28;20111;-71
2021/07/11 10:21:30;;;;;;;11.15;3.33;;;;;;;35.75;33.56;100456.66;5032784;28;20128;-70
2021/07/11 10:24:16;;;;;;;12.68;3.40;;;;;;;35.67;33.93;100459.22;5033300;28;20045;-70
2021/07/11 10:26:59;;;;;;;9.38;3.35;;;;;;;35.55;34.86;100458.50;5032813;28;20038;-68
2021/07/11 10:29:29;;;;;;;8.38;3.40;;;;;;;35.42;35.44;100447.78;5033164;28;20405;-69
2021/07/11 10:32:03;;;;;;;13.32;3.67;;;;;;;35.54;34.83;100460.38;5031402;28;20048;-70
2021/07/11 10:34:35;;;;;;;11.65;3.70;;;;;;;35.58;34.98;100448.06;5015524;28;20095;-70
2021/07/11 10:37:22;;;;;;;14.50;3.92;;;;;;;35.60;34.57;100463.56;5032977;28;20041;-70
2021/07/11 10:40:07;;;;;;;9.48;4.10;;;;;;;35.47;33.58;100470.19;5032148;28;20037;-70
2021/07/11 10:42:47;;;;;;;10.63;4.28;;;;;;;35.45;33.49;100458.47;5032575;28;20370;-70
2021/07/11 10:45:16;;;;;;;12.65;4.55;;;;;;;35.40;33.51;100463.53;5012563;28;20084;-70
2021/07/11 10:47:59;;;;;;;;;;;;;;;;;;;;;
2021/07/11 10:50:32;;;;;;;9.10;3.67;;;;;;;35.33;34.16;100458.75;5032107;28;20037;-70
2021/07/11 10:53:03;;;;;;;10.07;4.13;;;;;;;35.36;33.64;100461.22;5031705;28;20049;-71
2021/07/11 10:55:45;;;;;;;9.80;4.15;;;;;;;35.25;34.09;100464.94;5032354;28;20444;-70
2021/07/11 10:58:28;;;;;;;10.02;3.80;;;;;;;35.42;34.00;100458.78;5012352;28;20033;-70
2021/07/11 11:01:06;;;;;;;6.43;3.30;;;;;;;35.49;33.94;100464.56;5026004;28;20120;-70
2021/07/11 11:03:52;;;;;;;10.85;3.63;;;;;;;35.66;33.62;100462.97;5032506;28;20053;-70
2021/07/11 11:06:24;;;;;;;6.90;3.35;;;;;;;35.83;33.32;100459.56;5031407;28;20120;-71
2021/07/11 11:09:04;;;;;;;14.05;3.97;;;;;;;36.08;32.54;100472.69;5032116;28;20046;-71
2021/07/11 11:12:18;;;;;;;;;;;;;;;;;;;;;
2021/07/11 11:15:01;;;;;;;8.20;3.78;;;;;;;36.21;31.89;100465.03;5031069;28;20045;-70
2021/07/11 11:17:46;;;;;;;12.90;4.10;;;;;;;36.19;31.99;100466.16;5029977;28;20040;-70
2021/07/11 11:20:43;;;;;;;12.48;3.90;;;;;;;36.09;31.95;100452.44;5049801;28;20140;-68
2021/07/11 11:25:55;;;;;;;11.27;3.97;;;;;;;36.14;31.99;100447.34;5050590;28;20051;-70
2021/07/11 11:28:43;;;;;;;13.45;3.95;;;;;;;36.26;32.46;100456.31;5051482;28;20120;-70
2021/07/11 11:31:34;;;;;;;13.82;4.78;;;;;;;36.49;32.28;100454.09;5051945;28;20057;-70
2021/07/11 11:34:22;;;;;;;7.55;3.53;;;;;;;36.61;31.92;100447.38;5026927;28;20049;-70
2021/07/11 11:37:06;;;;;;;10.60;3.55;;;;;;;36.70;31.91;100439.09;5029793;28;20091;-71
2021/07/11 11:39:51;;;;;;;15.77;3.80;;;;;;;36.66;32.19;100445.94;5031980;28;20111;-71
2021/07/11 11:42:27;;;;;;;7.28;3.42;;;;;;;36.87;31.27;100439.31;5031404;28;20052;-70
2021/07/11 11:45:38;;;;;;;11.68;4.05;;;;;;;36.94;31.26;100446.81;5029968;28;20033;-71
2021/07/11 11:51:12;;;;;;;15.95;6.28;;;;;;;37.21;30.69;100450.59;5023221;28;20037;-72
2021/07/11 11:54:08;;;;;;;;;;;;;;;;;;;;;
2021/07/11 11:57:03;;;;;;;14.27;4.50;;;;;;;37.14;30.37;100439.34;5026416;28;20096;-72